| time (UTC) | temp C | wind direction | speed KPH | gust KPH | rain 1hr cm | rain 24hr cm | rain mn cm | humidity % | barometer mb |
| 20260506002917 | 24 | 0.0 | 3.2 | 0.00 | 0.00 | 0.00 | 50 | 1003.6 | |
| 20260506002056 | 25 | 0.0 | 3.2 | 0.00 | 0.00 | 0.00 | 49 | 1003.6 | |
| 20260506001038 | 25 | 0.0 | 3.2 | 0.00 | 0.00 | 0.00 | 48 | 1003.6 | |
| 20260505235938 | 26 | 0.0 | 4.8 | 0.00 | 0.00 | 0.00 | 47 | 1002.9 | |
| 20260505234937 | 26 | 315 | 1.6 | 8.0 | 0.00 | 0.00 | 0.00 | 46 | 1002.6 |
| 20260505233917 | 27 | 0.0 | 3.2 | 0.00 | 0.00 | 0.00 | 45 | 1002.8 | |
| 20260505232917 | 28 | 292 | 4.8 | 12.9 | 0.00 | 0.00 | 0.00 | 42 | 1002.8 |
| 20260505231917 | 29 | 315 | 1.6 | 4.8 | 0.00 | 0.00 | 0.00 | 39 | 1002.4 |
| 20260505230917 | 30 | 0.0 | 4.8 | 0.00 | 0.00 | 0.00 | 37 | 1002.3 | |
| 20260505225917 | 31 | 315 | 3.2 | 6.4 | 0.00 | 0.00 | 0.00 | 34 | 1002.0 |
| 20260505224917 | 32 | 315 | 3.2 | 9.7 | 0.00 | 0.00 | 0.00 | 34 | 1001.9 |
| 20260505224018 | 32 | 0.0 | 3.2 | 0.00 | 0.00 | 0.00 | 36 | 1001.8 | |
| 20260505222958 | 32 | 0.0 | 0.0 | 0.00 | 0.00 | 0.00 | 38 | 1001.6 | |
| 20260505221937 | 32 | 315 | 1.6 | 3.2 | 0.00 | 0.00 | 0.00 | 38 | 1001.5 |
| 20260505220917 | 32 | 0.0 | 1.6 | 0.00 | 0.00 | 0.00 | 36 | 1001.6 | |
| 20260505215917 | 32 | 90 | 1.6 | 9.7 | 0.00 | 0.00 | 0.00 | 36 | 1001.6 |
| 20260505214917 | 32 | 0.0 | 0.0 | 0.00 | 0.00 | 0.00 | 38 | 1001.8 | |
| 20260505213937 | 32 | 0.0 | 1.6 | 0.00 | 0.00 | 0.00 | 37 | 1001.7 | |
| 20260505212917 | 32 | 292 | 3.2 | 6.4 | 0.00 | 0.00 | 0.00 | 37 | 1001.9 |
| 20260505211917 | 32 | 315 | 4.8 | 8.0 | 0.00 | 0.00 | 0.00 | 38 | 1002.1 |
| 20260505210938 | 33 | 0.0 | 0.0 | 0.00 | 0.00 | 0.00 | 38 | 1002.1 | |
| 20260505205917 | 32 | 0.0 | 0.0 | 0.00 | 0.00 | 0.00 | 41 | 1002.1 | |
| 20260505204917 | 32 | 0.0 | 0.0 | 0.00 | 0.00 | 0.00 | 41 | 1002.4 | |
| 20260505203937 | 32 | 0.0 | 8.0 | 0.00 | 0.00 | 0.00 | 40 | 1002.5 | |
| 20260505202937 | 32 | 0.0 | 0.0 | 0.00 | 0.00 | 0.00 | 41 | 1002.7 | |
| 20260505201918 | 31 | 0.0 | 6.4 | 0.00 | 0.00 | 0.00 | 42 | 1002.6 | |
| 20260505200917 | 31 | 0.0 | 0.0 | 0.00 | 0.00 | 0.00 | 43 | 1002.7 | |
| 20260505195937 | 31 | 0.0 | 0.0 | 0.00 | 0.00 | 0.00 | 43 | 1002.8 | |
| 20260505194937 | 31 | 45 | 3.2 | 9.7 | 0.00 | 0.00 | 0.00 | 43 | 1002.9 |
| 20260505193937 | 31 | 0.0 | 0.0 | 0.00 | 0.00 | 0.00 | 45 | 1002.9 | |
| 20260505192918 | 30 | 292 | 4.8 | 12.9 | 0.00 | 0.00 | 0.00 | 45 | 1002.8 |
| 20260505191915 | 30 | 247 | 1.6 | 8.0 | 0.00 | 0.00 | 0.00 | 47 | 1002.9 |
| 20260505191017 | 29 | 67 | 4.8 | 11.3 | 0.00 | 0.00 | 0.00 | 46 | 1002.9 |
| 20260505190018 | 29 | 90 | 1.6 | 6.4 | 0.00 | 0.00 | 0.00 | 47 | 1003.0 |
| 20260505184937 | 28 | 90 | 1.6 | 12.9 | 0.00 | 0.00 | 0.00 | 48 | 1003.1 |
| 20260505183917 | 28 | 0.0 | 0.0 | 0.00 | 0.00 | 0.00 | 48 | 1003.1 | |
| 20260505182917 | 28 | 270 | 3.2 | 8.0 | 0.00 | 0.00 | 0.00 | 47 | 1003.1 |
| 20260505181917 | 28 | 90 | 1.6 | 14.5 | 0.00 | 0.00 | 0.00 | 48 | 1003.1 |
| 20260505180937 | 28 | 292 | 4.8 | 9.7 | 0.00 | 0.00 | 0.00 | 48 | 1003.2 |
| 20260505175937 | 28 | 0.0 | 1.6 | 0.00 | 0.00 | 0.00 | 50 | 1003.2 | |
| 20260505174937 | 28 | 90 | 4.8 | 11.3 | 0.00 | 0.00 | 0.00 | 49 | 1003.1 |
| 20260505173917 | 28 | 292 | 1.6 | 4.8 | 0.00 | 0.00 | 0.00 | 51 | 1003.2 |
| 20260505173017 | 27 | 0.0 | 0.0 | 0.00 | 0.00 | 0.00 | 51 | 1003.2 | |
| 20260505171917 | 27 | 247 | 3.2 | 9.7 | 0.00 | 0.00 | 0.00 | 51 | 1003.4 |
| 20260505170917 | 27 | 67 | 1.6 | 6.4 | 0.00 | 0.00 | 0.00 | 51 | 1003.5 |
| 20260505170017 | 26 | 0.0 | 0.0 | 0.00 | 0.00 | 0.00 | 51 | 1003.3 | |
| 20260505164958 | 26 | 292 | 1.6 | 12.9 | 0.00 | 0.00 | 0.00 | 51 | 1003.4 |
| 20260505164058 | 26 | 0.0 | 3.2 | 0.00 | 0.00 | 0.00 | 51 | 1003.3 | |
| 20260505162917 | 26 | 0.0 | 1.6 | 0.00 | 0.00 | 0.00 | 51 | 1003.2 | |
| 20260505161917 | 26 | 90 | 3.2 | 17.7 | 0.00 | 0.00 | 0.00 | 51 | 1003.2 |
| 20260505160937 | 26 | 247 | 8.0 | 24.1 | 0.00 | 0.00 | 0.00 | 51 | 1003.2 |
| 20260505152937 | 25 | 90 | 3.2 | 12.9 | 0.00 | 0.00 | 0.00 | 51 | 1002.9 |
| 20260505151917 | 25 | 202 | 1.6 | 8.0 | 0.00 | 0.00 | 0.00 | 52 | 1003.1 |
| 20260505150937 | 24 | 315 | 3.2 | 8.0 | 0.00 | 0.00 | 0.00 | 53 | 1003.2 |
| 20260505124917 | 22 | 247 | 1.6 | 6.4 | 0.00 | 0.00 | 0.00 | 57 | 1002.7 |
| 20260505123917 | 21 | 67 | 1.6 | 6.4 | 0.00 | 0.00 | 0.00 | 57 | 1002.7 |
| 20260505122957 | 21 | 135 | 1.6 | 9.7 | 0.00 | 0.00 | 0.00 | 58 | 1002.3 |
| 20260505121917 | 21 | 247 | 1.6 | 8.0 | 0.00 | 0.00 | 0.00 | 58 | 1002.3 |
| 20260505120937 | 21 | 247 | 1.6 | 4.8 | 0.00 | 0.00 | 0.00 | 58 | 1002.3 |
| 20260505120037 | 21 | 112 | 3.2 | 6.4 | 0.00 | 0.00 | 0.00 | 58 | 1002.2 |
| 20260505114957 | 21 | 90 | 3.2 | 16.1 | 0.00 | 0.00 | 0.00 | 57 | 1002.1 |
| 20260505113917 | 21 | 0 | 3.2 | 11.3 | 0.00 | 0.00 | 0.00 | 57 | 1002.0 |
| 20260505113038 | 21 | 292 | 4.8 | 12.9 | 0.00 | 0.00 | 0.00 | 57 | 1002.1 |
| 20260505111937 | 21 | 247 | 3.2 | 9.7 | 0.00 | 0.00 | 0.00 | 57 | 1002.1 |
| 20260505111017 | 21 | 45 | 3.2 | 6.4 | 0.00 | 0.00 | 0.00 | 57 | 1002.1 |
| 20260505101917 | 21 | 0.0 | 0.0 | 0.00 | 0.00 | 0.00 | 57 | 1002.2 | |
| 20260505100917 | 21 | 67 | 3.2 | 9.7 | 0.00 | 0.00 | 0.00 | 57 | 1002.2 |
| 20260505095917 | 21 | 270 | 1.6 | 4.8 | 0.00 | 0.00 | 0.00 | 57 | 1002.1 |
| 20260505094937 | 21 | 90 | 3.2 | 8.0 | 0.00 | 0.00 | 0.00 | 58 | 1002.4 |
| 20260505093937 | 21 | 0.0 | 1.6 | 0.00 | 0.00 | 0.00 | 58 | 1002.3 | |
| 20260505092937 | 21 | 45 | 1.6 | 3.2 | 0.00 | 0.00 | 0.00 | 58 | 1002.4 |
| 20260505091937 | 21 | 0.0 | 0.0 | 0.00 | 0.00 | 0.00 | 58 | 1002.4 | |
| 20260505090957 | 21 | 45 | 1.6 | 9.7 | 0.00 | 0.00 | 0.00 | 58 | 1002.6 |
| 20260505085957 | 21 | 0.0 | 1.6 | 0.00 | 0.00 | 0.00 | 58 | 1002.6 | |
| 20260505085058 | 21 | 112 | 1.6 | 4.8 | 0.00 | 0.00 | 0.00 | 58 | 1002.5 |
| 20260505083937 | 21 | 0.0 | 1.6 | 0.00 | 0.00 | 0.00 | 59 | 1002.6 | |
| 20260505082917 | 21 | 0.0 | 3.2 | 0.00 | 0.00 | 0.00 | 59 | 1002.7 | |
| 20260505081957 | 21 | 90 | 1.6 | 9.7 | 0.00 | 0.00 | 0.00 | 59 | 1002.6 |
| 20260505080917 | 21 | 0.0 | 3.2 | 0.00 | 0.00 | 0.00 | 59 | 1002.7 | |
| 20260505075957 | 21 | 45 | 1.6 | 4.8 | 0.00 | 0.00 | 0.00 | 59 | 1002.9 |
| 20260505074937 | 21 | 112 | 1.6 | 8.0 | 0.00 | 0.00 | 0.00 | 59 | 1002.9 |
| 20260505073937 | 22 | 112 | 1.6 | 9.7 | 0.00 | 0.00 | 0.00 | 59 | 1003.1 |
| 20260505072957 | 22 | 135 | 1.6 | 4.8 | 0.00 | 0.00 | 0.00 | 59 | 1003.3 |
| 20260505071917 | 22 | 67 | 3.2 | 8.0 | 0.00 | 0.00 | 0.00 | 59 | 1003.5 |
| 20260505065957 | 22 | 292 | 3.2 | 6.4 | 0.00 | 0.00 | 0.00 | 58 | 1003.6 |
| 20260505064937 | 22 | 315 | 1.6 | 3.2 | 0.00 | 0.00 | 0.00 | 58 | 1003.8 |
| 20260505063917 | 22 | 0.0 | 1.6 | 0.00 | 0.00 | 0.00 | 58 | 1003.9 | |
| 20260505062937 | 22 | 112 | 1.6 | 6.4 | 0.00 | 0.00 | 0.00 | 58 | 1004.0 |
| 20260505061937 | 22 | 0.0 | 3.2 | 0.00 | 0.00 | 0.00 | 58 | 1004.0 | |
| 20260505060937 | 22 | 0.0 | 0.0 | 0.00 | 0.00 | 0.00 | 58 | 1004.0 | |
| 20260505055917 | 22 | 90 | 1.6 | 3.2 | 0.00 | 0.00 | 0.00 | 57 | 1003.9 |
| 20260505054917 | 22 | 90 | 1.6 | 6.4 | 0.00 | 0.00 | 0.00 | 57 | 1004.0 |
| 20260505053917 | 22 | 112 | 1.6 | 9.7 | 0.00 | 0.00 | 0.00 | 57 | 1004.1 |
| 20260505052917 | 22 | 135 | 3.2 | 11.3 | 0.00 | 0.00 | 0.00 | 57 | 1004.3 |
| 20260505051937 | 22 | 0.0 | 11.3 | 0.00 | 0.00 | 0.00 | 56 | 1004.3 | |
| 20260505050957 | 22 | 67 | 1.6 | 6.4 | 0.00 | 0.00 | 0.00 | 56 | 1004.3 |
| 20260505040916 | 22 | 90 | 1.6 | 8.0 | 0.00 | 0.00 | 0.00 | 54 | 1004.6 |
| 20260505035916 | 23 | 0.0 | 0.0 | 0.00 | 0.00 | 0.00 | 54 | 1004.6 | |
| 20260505034916 | 23 | 112 | 3.2 | 6.4 | 0.00 | 0.00 | 0.00 | 54 | 1004.6 |
| 20260505033916 | 23 | 0.0 | 1.6 | 0.00 | 0.00 | 0.00 | 53 | 1004.5 | |
| 20260505032916 | 23 | 90 | 1.6 | 3.2 | 0.00 | 0.00 | 0.00 | 53 | 1004.6 |
| 20260505032016 | 23 | 135 | 1.6 | 3.2 | 0.00 | 0.00 | 0.00 | 53 | 1004.5 |
| 20260505030916 | 23 | 0.0 | 0.0 | 0.00 | 0.00 | 0.00 | 53 | 1004.6 | |
| 20260505025956 | 23 | 0.0 | 1.6 | 0.00 | 0.00 | 0.00 | 52 | 1004.6 | |
| 20260505024956 | 23 | 0.0 | 1.6 | 0.00 | 0.00 | 0.00 | 52 | 1004.6 | |
| 20260505023916 | 23 | 135 | 1.6 | 8.0 | 0.00 | 0.00 | 0.00 | 52 | 1004.7 |
| 20260505023016 | 23 | 0.0 | 0.0 | 0.00 | 0.00 | 0.00 | 52 | 1004.5 | |
| 20260505021916 | 23 | 225 | 1.6 | 11.3 | 0.00 | 0.00 | 0.00 | 52 | 1004.4 |
| 20260505021057 | 23 | 0 | 1.6 | 9.7 | 0.00 | 0.00 | 0.00 | 51 | 1004.3 |
| 20260505015916 | 23 | 135 | 1.6 | 8.0 | 0.00 | 0.00 | 0.00 | 51 | 1004.3 |
| 20260505014916 | 23 | 135 | 1.6 | 6.4 | 0.00 | 0.00 | 0.00 | 50 | 1004.3 |
| 20260505013916 | 24 | 135 | 1.6 | 6.4 | 0.00 | 0.00 | 0.00 | 50 | 1004.4 |
| 20260505012936 | 24 | 22 | 6.4 | 14.5 | 0.00 | 0.00 | 0.00 | 49 | 1004.2 |
| 20260505011916 | 24 | 112 | 6.4 | 14.5 | 0.00 | 0.00 | 0.00 | 48 | 1004.2 |
| 20260505011016 | 25 | 90 | 3.2 | 6.4 | 0.00 | 0.00 | 0.00 | 48 | 1004.3 |
| 20260505010056 | 25 | 112 | 4.8 | 9.7 | 0.00 | 0.00 | 0.00 | 48 | 1004.2 |
| 20260505004917 | 25 | 112 | 1.6 | 4.8 | 0.00 | 0.00 | 0.00 | 47 | 1004.1 |
| 20260505003916 | 25 | 90 | 8.0 | 17.7 | 0.00 | 0.00 | 0.00 | 46 | 1004.1 |